sensor_id;sensor_type;location;lat;lon;timestamp;temperature;humidity
14755;DHT22;7469;50.906;6.952;2022-11-03T00:01:33;9.90;99.90
14755;DHT22;7469;50.906;6.952;2022-11-03T00:04:01;9.90;99.90
14755;DHT22;7469;50.906;6.952;2022-11-03T00:06:29;9.90;99.90
14755;DHT22;7469;50.906;6.952;2022-11-03T00:08:58;9.90;99.90
14755;DHT22;7469;50.906;6.952;2022-11-03T00:11:28;9.90;99.90
14755;DHT22;7469;50.906;6.952;2022-11-03T00:13:56;10.00;99.90
14755;DHT22;7469;50.906;6.952;2022-11-03T00:16:24;10.00;99.90
14755;DHT22;7469;50.906;6.952;2022-11-03T00:18:52;9.90;99.90
14755;DHT22;7469;50.906;6.952;2022-11-03T00:21:21;10.00;99.90
14755;DHT22;7469;50.906;6.952;2022-11-03T00:23:49;10.00;99.90
14755;DHT22;7469;50.906;6.952;2022-11-03T00:26:19;10.00;99.90
14755;DHT22;7469;50.906;6.952;2022-11-03T00:28:49;10.00;99.90
14755;DHT22;7469;50.906;6.952;2022-11-03T00:31:19;10.10;99.90
14755;DHT22;7469;50.906;6.952;2022-11-03T00:33:48;10.10;99.90
14755;DHT22;7469;50.906;6.952;2022-11-03T00:36:17;10.10;99.90
14755;DHT22;7469;50.906;6.952;2022-11-03T00:38:46;10.10;99.90
14755;DHT22;7469;50.906;6.952;2022-11-03T00:41:18;10.10;99.90
14755;DHT22;7469;50.906;6.952;2022-11-03T00:43:48;10.10;99.90
14755;DHT22;7469;50.906;6.952;2022-11-03T00:46:17;10.10;99.90
14755;DHT22;7469;50.906;6.952;2022-11-03T00:48:45;10.20;99.90
14755;DHT22;7469;50.906;6.952;2022-11-03T00:51:15;10.20;99.90
14755;DHT22;7469;50.906;6.952;2022-11-03T00:53:45;10.20;99.90
14755;DHT22;7469;50.906;6.952;2022-11-03T00:56:14;10.30;99.90
14755;DHT22;7469;50.906;6.952;2022-11-03T00:58:43;10.20;99.90
14755;DHT22;7469;50.906;6.952;2022-11-03T01:01:13;10.20;99.90
14755;DHT22;7469;50.906;6.952;2022-11-03T01:03:44;10.20;99.90
14755;DHT22;7469;50.906;6.952;2022-11-03T01:06:33;10.30;99.90
14755;DHT22;7469;50.906;6.952;2022-11-03T01:09:16;10.20;99.90
14755;DHT22;7469;50.906;6.952;2022-11-03T01:11:51;10.20;99.90
14755;DHT22;7469;50.906;6.952;2022-11-03T01:14:19;10.30;99.90
14755;DHT22;7469;50.906;6.952;2022-11-03T01:16:49;10.30;99.90
14755;DHT22;7469;50.906;6.952;2022-11-03T01:19:17;10.30;99.90
14755;DHT22;7469;50.906;6.952;2022-11-03T01:21:45;10.30;99.90
14755;DHT22;7469;50.906;6.952;2022-11-03T01:24:14;10.30;99.90
14755;DHT22;7469;50.906;6.952;2022-11-03T01:26:41;10.40;99.90
14755;DHT22;7469;50.906;6.952;2022-11-03T01:29:09;10.40;99.90
14755;DHT22;7469;50.906;6.952;2022-11-03T01:31:37;10.40;99.90
14755;DHT22;7469;50.906;6.952;2022-11-03T01:34:07;10.40;99.90
14755;DHT22;7469;50.906;6.952;2022-11-03T01:36:36;10.50;99.90
14755;DHT22;7469;50.906;6.952;2022-11-03T01:39:04;10.40;99.90
14755;DHT22;7469;50.906;6.952;2022-11-03T01:41:33;10.50;99.90
14755;DHT22;7469;50.906;6.952;2022-11-03T01:44:23;10.40;99.90
14755;DHT22;7469;50.906;6.952;2022-11-03T01:46:54;10.40;99.90
14755;DHT22;7469;50.906;6.952;2022-11-03T01:49:29;10.50;99.90
14755;DHT22;7469;50.906;6.952;2022-11-03T01:52:02;10.40;99.90
14755;DHT22;7469;50.906;6.952;2022-11-03T01:54:33;10.50;99.90
14755;DHT22;7469;50.906;6.952;2022-11-03T01:57:05;10.50;99.90
14755;DHT22;7469;50.906;6.952;2022-11-03T01:59:35;10.50;99.90
14755;DHT22;7469;50.906;6.952;2022-11-03T02:02:03;10.40;99.90
14755;DHT22;7469;50.906;6.952;2022-11-03T02:04:33;10.40;99.90
14755;DHT22;7469;50.906;6.952;2022-11-03T02:07:09;10.40;99.90
14755;DHT22;7469;50.906;6.952;2022-11-03T02:09:38;10.40;99.90
14755;DHT22;7469;50.906;6.952;2022-11-03T02:12:06;10.30;99.90
14755;DHT22;7469;50.906;6.952;2022-11-03T02:14:38;10.30;99.90
14755;DHT22;7469;50.906;6.952;2022-11-03T02:17:11;10.30;99.90
14755;DHT22;7469;50.906;6.952;2022-11-03T02:19:44;10.30;99.90
14755;DHT22;7469;50.906;6.952;2022-11-03T02:22:41;10.30;99.90
14755;DHT22;7469;50.906;6.952;2022-11-03T02:25:16;10.30;99.90
14755;DHT22;7469;50.906;6.952;2022-11-03T02:27:48;10.30;99.90
14755;DHT22;7469;50.906;6.952;2022-11-03T02:30:16;10.30;99.90
14755;DHT22;7469;50.906;6.952;2022-11-03T02:32:51;10.30;99.90
14755;DHT22;7469;50.906;6.952;2022-11-03T02:35:27;10.30;99.90
14755;DHT22;7469;50.906;6.952;2022-11-03T02:37:59;10.30;99.90
14755;DHT22;7469;50.906;6.952;2022-11-03T02:40:33;10.30;99.90
14755;DHT22;7469;50.906;6.952;2022-11-03T02:43:05;10.30;99.90
14755;DHT22;7469;50.906;6.952;2022-11-03T02:45:36;10.30;99.90
14755;DHT22;7469;50.906;6.952;2022-11-03T02:48:06;10.20;99.90
14755;DHT22;7469;50.906;6.952;2022-11-03T02:50:34;10.20;99.90
14755;DHT22;7469;50.906;6.952;2022-11-03T02:53:02;10.20;99.90
14755;DHT22;7469;50.906;6.952;2022-11-03T02:55:34;10.20;99.90
14755;DHT22;7469;50.906;6.952;2022-11-03T02:58:10;10.20;99.90
14755;DHT22;7469;50.906;6.952;2022-11-03T03:00:56;10.20;99.90
14755;DHT22;7469;50.906;6.952;2022-11-03T03:03:29;10.20;99.90
14755;DHT22;7469;50.906;6.952;2022-11-03T03:06:02;10.20;99.90
14755;DHT22;7469;50.906;6.952;2022-11-03T03:08:31;10.20;99.90
14755;DHT22;7469;50.906;6.952;2022-11-03T03:11:02;10.20;99.90
14755;DHT22;7469;50.906;6.952;2022-11-03T03:13:33;10.10;99.90
14755;DHT22;7469;50.906;6.952;2022-11-03T03:16:07;10.10;99.90
14755;DHT22;7469;50.906;6.952;2022-11-03T03:18:45;10.20;99.90
14755;DHT22;7469;50.906;6.952;2022-11-03T03:21:18;10.20;99.90
14755;DHT22;7469;50.906;6.952;2022-11-03T03:23:50;10.20;99.90
14755;DHT22;7469;50.906;6.952;2022-11-03T03:26:25;10.20;99.90
14755;DHT22;7469;50.906;6.952;2022-11-03T03:28:58;10.20;99.90
14755;DHT22;7469;50.906;6.952;2022-11-03T03:31:31;10.20;99.90
14755;DHT22;7469;50.906;6.952;2022-11-03T03:34:01;10.20;99.90
14755;DHT22;7469;50.906;6.952;2022-11-03T03:36:51;10.20;99.90
14755;DHT22;7469;50.906;6.952;2022-11-03T03:39:24;10.30;99.90
14755;DHT22;7469;50.906;6.952;2022-11-03T03:41:54;10.20;99.90
14755;DHT22;7469;50.906;6.952;2022-11-03T03:44:25;10.30;99.90
14755;DHT22;7469;50.906;6.952;2022-11-03T03:46:58;10.20;99.90
14755;DHT22;7469;50.906;6.952;2022-11-03T03:49:27;10.20;99.90
14755;DHT22;7469;50.906;6.952;2022-11-03T03:51:55;10.20;99.90
14755;DHT22;7469;50.906;6.952;2022-11-03T03:54:23;10.20;99.90
14755;DHT22;7469;50.906;6.952;2022-11-03T03:56:56;10.20;99.90
14755;DHT22;7469;50.906;6.952;2022-11-03T03:59:28;10.20;99.90
14755;DHT22;7469;50.906;6.952;2022-11-03T04:01:57;10.20;99.90
14755;DHT22;7469;50.906;6.952;2022-11-03T04:04:25;10.20;99.90
14755;DHT22;7469;50.906;6.952;2022-11-03T04:06:53;10.20;99.90
14755;DHT22;7469;50.906;6.952;2022-11-03T04:09:35;10.20;99.90
14755;DHT22;7469;50.906;6.952;2022-11-03T04:12:03;10.20;99.90
14755;DHT22;7469;50.906;6.952;2022-11-03T04:14:50;10.20;99.90
14755;DHT22;7469;50.906;6.952;2022-11-03T04:17:37;10.20;99.90
14755;DHT22;7469;50.906;6.952;2022-11-03T04:20:23;10.10;99.90
14755;DHT22;7469;50.906;6.952;2022-11-03T04:23:09;10.10;99.90
14755;DHT22;7469;50.906;6.952;2022-11-03T04:25:41;10.10;99.90
14755;DHT22;7469;50.906;6.952;2022-11-03T04:28:11;10.10;99.90
14755;DHT22;7469;50.906;6.952;2022-11-03T04:30:41;10.10;99.90
14755;DHT22;7469;50.906;6.952;2022-11-03T04:33:13;10.10;99.90
14755;DHT22;7469;50.906;6.952;2022-11-03T04:35:42;10.10;99.90
14755;DHT22;7469;50.906;6.952;2022-11-03T04:38:20;10.10;99.90
14755;DHT22;7469;50.906;6.952;2022-11-03T04:40:52;10.10;99.90
14755;DHT22;7469;50.906;6.952;2022-11-03T04:43:28;10.10;99.90
14755;DHT22;7469;50.906;6.952;2022-11-03T04:45:58;10.10;99.90
14755;DHT22;7469;50.906;6.952;2022-11-03T04:48:28;10.10;99.90
14755;DHT22;7469;50.906;6.952;2022-11-03T04:50:58;10.20;99.90
14755;DHT22;7469;50.906;6.952;2022-11-03T04:53:28;10.20;99.90
14755;DHT22;7469;50.906;6.952;2022-11-03T04:55:57;10.20;99.90
14755;DHT22;7469;50.906;6.952;2022-11-03T04:58:34;10.20;99.90
14755;DHT22;7469;50.906;6.952;2022-11-03T05:01:04;10.20;99.90
14755;DHT22;7469;50.906;6.952;2022-11-03T05:03:35;10.20;99.90
14755;DHT22;7469;50.906;6.952;2022-11-03T05:06:10;10.20;99.90
14755;DHT22;7469;50.906;6.952;2022-11-03T05:08:38;10.30;99.90
14755;DHT22;7469;50.906;6.952;2022-11-03T05:11:14;10.30;99.90
14755;DHT22;7469;50.906;6.952;2022-11-03T05:13:43;10.30;99.90
14755;DHT22;7469;50.906;6.952;2022-11-03T05:16:13;10.30;99.90
14755;DHT22;7469;50.906;6.952;2022-11-03T05:18:42;10.30;99.90
14755;DHT22;7469;50.906;6.952;2022-11-03T05:21:13;10.30;99.90
14755;DHT22;7469;50.906;6.952;2022-11-03T05:23:45;10.40;99.90
14755;DHT22;7469;50.906;6.952;2022-11-03T05:26:17;10.40;99.90
14755;DHT22;7469;50.906;6.952;2022-11-03T05:28:49;10.40;99.90
14755;DHT22;7469;50.906;6.952;2022-11-03T05:31:22;10.40;99.90
14755;DHT22;7469;50.906;6.952;2022-11-03T05:33:51;10.40;99.90
14755;DHT22;7469;50.906;6.952;2022-11-03T05:36:22;10.50;99.90
14755;DHT22;7469;50.906;6.952;2022-11-03T05:38:51;10.50;99.90
14755;DHT22;7469;50.906;6.952;2022-11-03T05:41:23;10.50;99.90
14755;DHT22;7469;50.906;6.952;2022-11-03T05:43:56;10.60;99.90
14755;DHT22;7469;50.906;6.952;2022-11-03T05:46:28;10.60;99.90
14755;DHT22;7469;50.906;6.952;2022-11-03T05:49:00;10.70;99.90
14755;DHT22;7469;50.906;6.952;2022-11-03T05:51:33;10.70;99.90
14755;DHT22;7469;50.906;6.952;2022-11-03T05:54:03;10.70;99.90
14755;DHT22;7469;50.906;6.952;2022-11-03T05:56:32;10.70;99.90
14755;DHT22;7469;50.906;6.952;2022-11-03T05:59:01;10.80;99.90
14755;DHT22;7469;50.906;6.952;2022-11-03T06:01:34;10.80;99.90
14755;DHT22;7469;50.906;6.952;2022-11-03T06:04:14;10.80;99.90
14755;DHT22;7469;50.906;6.952;2022-11-03T06:06:50;10.80;99.90
14755;DHT22;7469;50.906;6.952;2022-11-03T06:09:22;10.80;99.90
14755;DHT22;7469;50.906;6.952;2022-11-03T06:11:52;10.80;99.90
14755;DHT22;7469;50.906;6.952;2022-11-03T06:14:21;10.90;99.90
14755;DHT22;7469;50.906;6.952;2022-11-03T06:16:54;10.90;99.90
14755;DHT22;7469;50.906;6.952;2022-11-03T06:19:27;10.90;99.90
14755;DHT22;7469;50.906;6.952;2022-11-03T06:21:58;10.90;99.90
14755;DHT22;7469;50.906;6.952;2022-11-03T06:24:31;10.90;99.90
14755;DHT22;7469;50.906;6.952;2022-11-03T06:27:00;10.90;99.90
14755;DHT22;7469;50.906;6.952;2022-11-03T06:29:30;10.90;99.90
14755;DHT22;7469;50.906;6.952;2022-11-03T06:32:00;10.90;99.90
14755;DHT22;7469;50.906;6.952;2022-11-03T06:34:35;10.90;99.90
14755;DHT22;7469;50.906;6.952;2022-11-03T06:37:12;10.90;99.90
14755;DHT22;7469;50.906;6.952;2022-11-03T06:39:42;10.90;99.90
14755;DHT22;7469;50.906;6.952;2022-11-03T06:42:11;10.90;99.90
14755;DHT22;7469;50.906;6.952;2022-11-03T06:44:41;10.90;99.90
14755;DHT22;7469;50.906;6.952;2022-11-03T06:47:22;10.90;99.90
14755;DHT22;7469;50.906;6.952;2022-11-03T06:49:51;10.90;99.90
14755;DHT22;7469;50.906;6.952;2022-11-03T06:52:25;10.90;99.90
14755;DHT22;7469;50.906;6.952;2022-11-03T06:54:58;10.90;99.90
14755;DHT22;7469;50.906;6.952;2022-11-03T06:57:29;10.90;99.90
14755;DHT22;7469;50.906;6.952;2022-11-03T07:00:00;10.90;99.90
14755;DHT22;7469;50.906;6.952;2022-11-03T07:03:00;10.90;99.90
14755;DHT22;7469;50.906;6.952;2022-11-03T07:05:30;10.90;99.90
14755;DHT22;7469;50.906;6.952;2022-11-03T07:08:01;10.90;99.90
14755;DHT22;7469;50.906;6.952;2022-11-03T07:10:31;10.90;99.90
14755;DHT22;7469;50.906;6.952;2022-11-03T07:13:02;10.90;99.90
14755;DHT22;7469;50.906;6.952;2022-11-03T07:15:35;10.90;99.90
14755;DHT22;7469;50.906;6.952;2022-11-03T07:18:14;10.90;99.90
14755;DHT22;7469;50.906;6.952;2022-11-03T07:20:43;10.90;99.90
14755;DHT22;7469;50.906;6.952;2022-11-03T07:23:16;10.90;99.90
14755;DHT22;7469;50.906;6.952;2022-11-03T07:25:49;10.90;99.90
14755;DHT22;7469;50.906;6.952;2022-11-03T07:28:19;10.90;99.90
14755;DHT22;7469;50.906;6.952;2022-11-03T07:30:47;11.00;99.90
14755;DHT22;7469;50.906;6.952;2022-11-03T07:33:20;11.10;99.90
14755;DHT22;7469;50.906;6.952;2022-11-03T07:35:49;11.20;99.90
14755;DHT22;7469;50.906;6.952;2022-11-03T07:38:38;11.30;99.90
14755;DHT22;7469;50.906;6.952;2022-11-03T07:41:11;11.50;99.90
14755;DHT22;7469;50.906;6.952;2022-11-03T07:43:48;11.60;99.90
14755;DHT22;7469;50.906;6.952;2022-11-03T07:46:19;11.80;99.90
14755;DHT22;7469;50.906;6.952;2022-11-03T07:48:52;11.90;99.90
14755;DHT22;7469;50.906;6.952;2022-11-03T07:51:22;12.10;99.90
14755;DHT22;7469;50.906;6.952;2022-11-03T07:53:52;12.30;99.90
14755;DHT22;7469;50.906;6.952;2022-11-03T07:56:21;12.50;99.90
14755;DHT22;7469;50.906;6.952;2022-11-03T07:58:52;12.60;99.90
14755;DHT22;7469;50.906;6.952;2022-11-03T08:01:24;12.80;99.90
14755;DHT22;7469;50.906;6.952;2022-11-03T08:03:58;12.90;99.90
14755;DHT22;7469;50.906;6.952;2022-11-03T08:06:27;13.00;99.90
14755;DHT22;7469;50.906;6.952;2022-11-03T08:08:55;13.00;99.90
14755;DHT22;7469;50.906;6.952;2022-11-03T08:11:23;13.10;99.90
14755;DHT22;7469;50.906;6.952;2022-11-03T08:13:55;13.10;99.90
14755;DHT22;7469;50.906;6.952;2022-11-03T08:16:23;13.00;99.90
14755;DHT22;7469;50.906;6.952;2022-11-03T08:18:51;13.00;99.90
14755;DHT22;7469;50.906;6.952;2022-11-03T08:21:20;13.00;99.90
14755;DHT22;7469;50.906;6.952;2022-11-03T08:23:49;13.00;99.90
14755;DHT22;7469;50.906;6.952;2022-11-03T08:26:17;13.00;99.90
14755;DHT22;7469;50.906;6.952;2022-11-03T08:28:45;13.00;99.90
14755;DHT22;7469;50.906;6.952;2022-11-03T08:31:14;13.00;99.90
14755;DHT22;7469;50.906;6.952;2022-11-03T08:33:42;13.00;99.90
14755;DHT22;7469;50.906;6.952;2022-11-03T08:36:10;13.00;99.90
14755;DHT22;7469;50.906;6.952;2022-11-03T08:38:39;13.00;99.90
14755;DHT22;7469;50.906;6.952;2022-11-03T08:41:07;13.00;99.90
14755;DHT22;7469;50.906;6.952;2022-11-03T08:43:35;13.00;99.90
14755;DHT22;7469;50.906;6.952;2022-11-03T08:46:03;13.10;99.90
14755;DHT22;7469;50.906;6.952;2022-11-03T08:48:42;13.20;99.90
14755;DHT22;7469;50.906;6.952;2022-11-03T08:51:11;13.30;99.90
14755;DHT22;7469;50.906;6.952;2022-11-03T08:53:41;13.40;99.90
14755;DHT22;7469;50.906;6.952;2022-11-03T08:56:09;13.50;99.90
14755;DHT22;7469;50.906;6.952;2022-11-03T08:58:41;13.60;99.90
14755;DHT22;7469;50.906;6.952;2022-11-03T09:01:09;13.70;99.90
14755;DHT22;7469;50.906;6.952;2022-11-03T09:03:38;13.70;99.90
14755;DHT22;7469;50.906;6.952;2022-11-03T09:06:06;13.70;99.90
14755;DHT22;7469;50.906;6.952;2022-11-03T09:08:34;13.70;99.90
14755;DHT22;7469;50.906;6.952;2022-11-03T09:11:23;13.70;99.90
14755;DHT22;7469;50.906;6.952;2022-11-03T09:13:51;13.70;99.90
14755;DHT22;7469;50.906;6.952;2022-11-03T09:16:19;13.60;99.90
14755;DHT22;7469;50.906;6.952;2022-11-03T09:18:47;13.70;99.90
14755;DHT22;7469;50.906;6.952;2022-11-03T09:21:15;13.70;99.90
14755;DHT22;7469;50.906;6.952;2022-11-03T09:23:43;13.70;99.90
14755;DHT22;7469;50.906;6.952;2022-11-03T09:26:11;13.70;99.90
14755;DHT22;7469;50.906;6.952;2022-11-03T09:28:40;13.80;99.90
14755;DHT22;7469;50.906;6.952;2022-11-03T09:31:08;13.80;99.90
14755;DHT22;7469;50.906;6.952;2022-11-03T09:33:36;13.80;99.90
14755;DHT22;7469;50.906;6.952;2022-11-03T09:36:04;13.80;99.90
14755;DHT22;7469;50.906;6.952;2022-11-03T09:38:32;13.90;99.90
14755;DHT22;7469;50.906;6.952;2022-11-03T09:41:00;14.00;99.90
14755;DHT22;7469;50.906;6.952;2022-11-03T09:43:46;14.10;99.90
14755;DHT22;7469;50.906;6.952;2022-11-03T09:46:16;14.10;99.90
14755;DHT22;7469;50.906;6.952;2022-11-03T09:48:44;14.10;99.90
14755;DHT22;7469;50.906;6.952;2022-11-03T09:51:17;14.10;99.90
14755;DHT22;7469;50.906;6.952;2022-11-03T09:53:46;14.10;99.90
14755;DHT22;7469;50.906;6.952;2022-11-03T09:56:16;14.00;99.90
14755;DHT22;7469;50.906;6.952;2022-11-03T09:58:46;14.00;99.90
14755;DHT22;7469;50.906;6.952;2022-11-03T10:01:20;13.80;99.90
14755;DHT22;7469;50.906;6.952;2022-11-03T10:03:48;13.70;99.90
14755;DHT22;7469;50.906;6.952;2022-11-03T10:06:16;13.70;99.90
14755;DHT22;7469;50.906;6.952;2022-11-03T10:08:45;13.60;99.90
14755;DHT22;7469;50.906;6.952;2022-11-03T10:11:13;13.50;99.90
14755;DHT22;7469;50.906;6.952;2022-11-03T10:13:44;13.50;99.90
14755;DHT22;7469;50.906;6.952;2022-11-03T10:16:17;13.50;99.90
14755;DHT22;7469;50.906;6.952;2022-11-03T10:18:45;13.50;99.90
14755;DHT22;7469;50.906;6.952;2022-11-03T10:21:15;13.50;99.90
14755;DHT22;7469;50.906;6.952;2022-11-03T10:23:43;13.50;99.90
14755;DHT22;7469;50.906;6.952;2022-11-03T10:26:13;13.60;99.90
14755;DHT22;7469;50.906;6.952;2022-11-03T10:28:57;13.60;99.90
14755;DHT22;7469;50.906;6.952;2022-11-03T10:31:33;13.70;99.90
14755;DHT22;7469;50.906;6.952;2022-11-03T10:34:01;13.80;99.90
14755;DHT22;7469;50.906;6.952;2022-11-03T10:36:31;13.80;99.90
14755;DHT22;7469;50.906;6.952;2022-11-03T10:38:59;13.80;99.90
14755;DHT22;7469;50.906;6.952;2022-11-03T10:41:55;13.80;99.90
14755;DHT22;7469;50.906;6.952;2022-11-03T10:44:25;13.70;99.90
14755;DHT22;7469;50.906;6.952;2022-11-03T10:46:59;13.80;99.90
14755;DHT22;7469;50.906;6.952;2022-11-03T10:49:28;13.70;99.90
14755;DHT22;7469;50.906;6.952;2022-11-03T10:52:15;13.70;99.90
14755;DHT22;7469;50.906;6.952;2022-11-03T10:54:45;13.70;99.90
14755;DHT22;7469;50.906;6.952;2022-11-03T10:57:13;13.70;99.90
14755;DHT22;7469;50.906;6.952;2022-11-03T10:59:42;13.70;99.90
14755;DHT22;7469;50.906;6.952;2022-11-03T11:02:15;13.70;99.90
14755;DHT22;7469;50.906;6.952;2022-11-03T11:04:46;13.70;99.90
14755;DHT22;7469;50.906;6.952;2022-11-03T11:07:21;13.70;99.90
14755;DHT22;7469;50.906;6.952;2022-11-03T11:09:51;13.60;99.90
14755;DHT22;7469;50.906;6.952;2022-11-03T11:12:22;13.60;99.90
14755;DHT22;7469;50.906;6.952;2022-11-03T11:14:53;13.60;99.90
14755;DHT22;7469;50.906;6.952;2022-11-03T11:17:44;13.70;99.90
14755;DHT22;7469;50.906;6.952;2022-11-03T11:26:38;13.70;99.90
14755;DHT22;7469;50.906;6.952;2022-11-03T11:29:39;13.70;99.90
14755;DHT22;7469;50.906;6.952;2022-11-03T11:39:00;13.80;99.90
14755;DHT22;7469;50.906;6.952;2022-11-03T11:42:06;13.80;99.90
14755;DHT22;7469;50.906;6.952;2022-11-03T11:44:45;13.70;99.90
14755;DHT22;7469;50.906;6.952;2022-11-03T11:47:31;13.70;99.90
14755;DHT22;7469;50.906;6.952;2022-11-03T11:52:56;13.70;99.90
14755;DHT22;7469;50.906;6.952;2022-11-03T11:55:30;13.70;99.90
14755;DHT22;7469;50.906;6.952;2022-11-03T11:58:00;13.70;99.90
14755;DHT22;7469;50.906;6.952;2022-11-03T12:00:31;13.70;99.90
14755;DHT22;7469;50.906;6.952;2022-11-03T12:03:01;13.70;99.90
14755;DHT22;7469;50.906;6.952;2022-11-03T12:05:31;13.60;99.90
14755;DHT22;7469;50.906;6.952;2022-11-03T12:07:59;13.50;99.90
14755;DHT22;7469;50.906;6.952;2022-11-03T12:10:29;13.50;99.90
14755;DHT22;7469;50.906;6.952;2022-11-03T12:12:58;13.50;99.90
14755;DHT22;7469;50.906;6.952;2022-11-03T12:18:34;13.40;99.90
14755;DHT22;7469;50.906;6.952;2022-11-03T12:21:08;13.40;99.90
14755;DHT22;7469;50.906;6.952;2022-11-03T12:23:39;13.40;99.90
14755;DHT22;7469;50.906;6.952;2022-11-03T12:26:16;13.50;99.90
14755;DHT22;7469;50.906;6.952;2022-11-03T12:28:44;13.50;99.90
14755;DHT22;7469;50.906;6.952;2022-11-03T12:31:12;13.50;99.90
14755;DHT22;7469;50.906;6.952;2022-11-03T12:33:40;13.40;99.90
14755;DHT22;7469;50.906;6.952;2022-11-03T12:36:08;13.40;99.90
14755;DHT22;7469;50.906;6.952;2022-11-03T12:38:36;13.40;99.90
14755;DHT22;7469;50.906;6.952;2022-11-03T12:41:05;13.40;99.90
14755;DHT22;7469;50.906;6.952;2022-11-03T12:43:50;13.40;99.90
14755;DHT22;7469;50.906;6.952;2022-11-03T12:46:20;13.40;99.90
14755;DHT22;7469;50.906;6.952;2022-11-03T12:48:48;13.40;99.90
14755;DHT22;7469;50.906;6.952;2022-11-03T12:51:17;13.50;99.90
14755;DHT22;7469;50.906;6.952;2022-11-03T12:53:46;13.40;99.90
14755;DHT22;7469;50.906;6.952;2022-11-03T12:56:15;13.40;99.90
14755;DHT22;7469;50.906;6.952;2022-11-03T12:58:43;13.40;99.90
14755;DHT22;7469;50.906;6.952;2022-11-03T13:01:12;13.40;99.90
14755;DHT22;7469;50.906;6.952;2022-11-03T13:03:41;13.40;99.90
14755;DHT22;7469;50.906;6.952;2022-11-03T13:06:09;13.40;99.90
14755;DHT22;7469;50.906;6.952;2022-11-03T13:08:40;13.40;99.90
14755;DHT22;7469;50.906;6.952;2022-11-03T13:11:08;13.40;99.90
14755;DHT22;7469;50.906;6.952;2022-11-03T13:13:50;13.40;99.90
14755;DHT22;7469;50.906;6.952;2022-11-03T13:16:20;13.40;99.90
14755;DHT22;7469;50.906;6.952;2022-11-03T13:18:47;13.40;99.90
14755;DHT22;7469;50.906;6.952;2022-11-03T13:21:16;13.40;99.90
14755;DHT22;7469;50.906;6.952;2022-11-03T13:23:44;13.40;99.90
14755;DHT22;7469;50.906;6.952;2022-11-03T13:26:12;13.50;99.90
14755;DHT22;7469;50.906;6.952;2022-11-03T13:28:42;13.50;99.90
14755;DHT22;7469;50.906;6.952;2022-11-03T13:31:10;13.50;99.90
14755;DHT22;7469;50.906;6.952;2022-11-03T13:33:39;13.50;99.90
14755;DHT22;7469;50.906;6.952;2022-11-03T13:36:07;13.50;99.90
14755;DHT22;7469;50.906;6.952;2022-11-03T13:38:36;13.40;99.90
14755;DHT22;7469;50.906;6.952;2022-11-03T13:41:04;13.40;99.90
14755;DHT22;7469;50.906;6.952;2022-11-03T13:43:35;13.50;99.90
14755;DHT22;7469;50.906;6.952;2022-11-03T13:46:03;13.50;99.90
14755;DHT22;7469;50.906;6.952;2022-11-03T13:48:31;13.50;99.90
14755;DHT22;7469;50.906;6.952;2022-11-03T13:51:21;13.50;99.90
14755;DHT22;7469;50.906;6.952;2022-11-03T13:53:49;13.50;99.90
14755;DHT22;7469;50.906;6.952;2022-11-03T13:56:39;13.40;99.90
14755;DHT22;7469;50.906;6.952;2022-11-03T13:59:27;13.40;99.90
14755;DHT22;7469;50.906;6.952;2022-11-03T14:01:55;13.40;99.90
14755;DHT22;7469;50.906;6.952;2022-11-03T14:04:43;13.40;99.90
14755;DHT22;7469;50.906;6.952;2022-11-03T14:07:12;13.30;99.90
14755;DHT22;7469;50.906;6.952;2022-11-03T14:09:40;13.30;99.90
14755;DHT22;7469;50.906;6.952;2022-11-03T14:12:08;13.30;99.90
14755;DHT22;7469;50.906;6.952;2022-11-03T14:14:53;13.30;99.90
14755;DHT22;7469;50.906;6.952;2022-11-03T14:17:21;13.30;99.90
14755;DHT22;7469;50.906;6.952;2022-11-03T14:19:50;13.30;99.90
14755;DHT22;7469;50.906;6.952;2022-11-03T14:22:26;13.30;99.90
14755;DHT22;7469;50.906;6.952;2022-11-03T14:24:55;13.30;99.90
14755;DHT22;7469;50.906;6.952;2022-11-03T14:27:23;13.30;99.90
14755;DHT22;7469;50.906;6.952;2022-11-03T14:29:52;13.30;99.90
14755;DHT22;7469;50.906;6.952;2022-11-03T14:32:20;13.30;99.90
14755;DHT22;7469;50.906;6.952;2022-11-03T14:34:48;13.30;99.90
14755;DHT22;7469;50.906;6.952;2022-11-03T14:37:16;13.30;99.90
14755;DHT22;7469;50.906;6.952;2022-11-03T14:39:45;13.30;99.90
14755;DHT22;7469;50.906;6.952;2022-11-03T14:42:13;13.20;99.90
14755;DHT22;7469;50.906;6.952;2022-11-03T14:44:42;13.20;99.90
14755;DHT22;7469;50.906;6.952;2022-11-03T14:47:12;13.20;99.90
14755;DHT22;7469;50.906;6.952;2022-11-03T14:49:40;13.20;99.90
14755;DHT22;7469;50.906;6.952;2022-11-03T14:52:08;13.10;99.90
14755;DHT22;7469;50.906;6.952;2022-11-03T14:54:36;13.10;99.90
14755;DHT22;7469;50.906;6.952;2022-11-03T14:57:05;13.10;99.90
14755;DHT22;7469;50.906;6.952;2022-11-03T14:59:33;13.00;99.90
14755;DHT22;7469;50.906;6.952;2022-11-03T15:02:04;13.00;99.90
14755;DHT22;7469;50.906;6.952;2022-11-03T15:04:32;13.00;99.90
14755;DHT22;7469;50.906;6.952;2022-11-03T15:07:00;12.90;99.90
14755;DHT22;7469;50.906;6.952;2022-11-03T15:09:28;12.90;99.90
14755;DHT22;7469;50.906;6.952;2022-11-03T15:11:56;12.90;99.90
14755;DHT22;7469;50.906;6.952;2022-11-03T15:14:25;12.80;99.90
14755;DHT22;7469;50.906;6.952;2022-11-03T15:16:54;12.70;99.90
14755;DHT22;7469;50.906;6.952;2022-11-03T15:19:22;12.60;99.90
14755;DHT22;7469;50.906;6.952;2022-11-03T15:21:50;12.60;99.90
14755;DHT22;7469;50.906;6.952;2022-11-03T15:24:18;12.50;99.90
14755;DHT22;7469;50.906;6.952;2022-11-03T15:27:06;12.50;99.90
14755;DHT22;7469;50.906;6.952;2022-11-03T15:29:35;12.30;99.90
14755;DHT22;7469;50.906;6.952;2022-11-03T15:32:04;12.30;99.90
14755;DHT22;7469;50.906;6.952;2022-11-03T15:34:32;12.20;99.90
14755;DHT22;7469;50.906;6.952;2022-11-03T15:37:00;12.20;99.90
14755;DHT22;7469;50.906;6.952;2022-11-03T15:39:28;12.20;99.90
14755;DHT22;7469;50.906;6.952;2022-11-03T15:41:56;12.10;99.90
14755;DHT22;7469;50.906;6.952;2022-11-03T15:44:26;12.10;99.90
14755;DHT22;7469;50.906;6.952;2022-11-03T15:46:55;12.10;99.90
14755;DHT22;7469;50.906;6.952;2022-11-03T15:49:23;12.00;99.90
14755;DHT22;7469;50.906;6.952;2022-11-03T15:51:51;12.00;99.90
14755;DHT22;7469;50.906;6.952;2022-11-03T15:54:18;12.00;99.90
14755;DHT22;7469;50.906;6.952;2022-11-03T15:56:46;12.00;99.90
14755;DHT22;7469;50.906;6.952;2022-11-03T15:59:15;12.00;99.90
14755;DHT22;7469;50.906;6.952;2022-11-03T16:01:42;12.00;99.90
14755;DHT22;7469;50.906;6.952;2022-11-03T16:04:12;12.00;99.90
14755;DHT22;7469;50.906;6.952;2022-11-03T16:06:41;12.00;99.90
14755;DHT22;7469;50.906;6.952;2022-11-03T16:09:29;12.00;99.90
14755;DHT22;7469;50.906;6.952;2022-11-03T16:11:57;11.90;99.90
14755;DHT22;7469;50.906;6.952;2022-11-03T16:14:25;11.90;99.90
14755;DHT22;7469;50.906;6.952;2022-11-03T16:16:53;11.90;99.90
14755;DHT22;7469;50.906;6.952;2022-11-03T16:19:23;11.90;99.90
14755;DHT22;7469;50.906;6.952;2022-11-03T16:21:51;11.90;99.90
14755;DHT22;7469;50.906;6.952;2022-11-03T16:24:19;11.90;99.90
14755;DHT22;7469;50.906;6.952;2022-11-03T16:26:47;11.90;99.90
14755;DHT22;7469;50.906;6.952;2022-11-03T16:29:16;11.90;99.90
14755;DHT22;7469;50.906;6.952;2022-11-03T16:31:44;11.90;99.90
14755;DHT22;7469;50.906;6.952;2022-11-03T16:34:13;11.90;99.90